sensor_id;sensor_type;location;lat;lon;timestamp;pressure;altitude;pressure_sealevel;temperature;humidity
36242;BME280;22283;42.748;12.732;2022-11-20T00:04:05;97123.38;;;8.40;100.00
36242;BME280;22283;42.748;12.732;2022-11-20T00:09:06;97107.94;;;8.24;100.00
36242;BME280;22283;42.748;12.732;2022-11-20T00:14:08;97109.84;;;8.22;100.00
36242;BME280;22283;42.748;12.732;2022-11-20T00:19:09;97114.41;;;8.20;100.00
36242;BME280;22283;42.748;12.732;2022-11-20T00:24:10;97118.09;;;8.18;100.00
36242;BME280;22283;42.748;12.732;2022-11-20T00:29:11;97137.28;;;8.20;100.00
36242;BME280;22283;42.748;12.732;2022-11-20T00:34:12;97131.88;;;8.10;100.00
36242;BME280;22283;42.748;12.732;2022-11-20T00:39:12;97141.72;;;8.08;100.00
36242;BME280;22283;42.748;12.732;2022-11-20T00:44:13;97135.72;;;8.06;100.00
36242;BME280;22283;42.748;12.732;2022-11-20T00:49:14;97147.00;;;8.08;100.00
36242;BME280;22283;42.748;12.732;2022-11-20T00:54:14;97142.91;;;8.04;100.00
36242;BME280;22283;42.748;12.732;2022-11-20T00:59:15;97138.81;;;8.00;100.00
36242;BME280;22283;42.748;12.732;2022-11-20T01:04:16;97142.31;;;8.00;100.00
36242;BME280;22283;42.748;12.732;2022-11-20T01:09:16;97148.75;;;8.07;100.00
36242;BME280;22283;42.748;12.732;2022-11-20T01:14:19;97153.19;;;8.07;100.00
36242;BME280;22283;42.748;12.732;2022-11-20T01:19:22;97143.50;;;8.07;100.00
36242;BME280;22283;42.748;12.732;2022-11-20T01:24:23;97152.72;;;8.13;100.00
36242;BME280;22283;42.748;12.732;2022-11-20T01:29:24;97150.31;;;8.10;100.00
36242;BME280;22283;42.748;12.732;2022-11-20T01:34:25;97164.94;;;8.14;100.00
36242;BME280;22283;42.748;12.732;2022-11-20T01:39:26;97167.81;;;8.11;100.00
36242;BME280;22283;42.748;12.732;2022-11-20T01:50:27;97183.59;;;8.11;100.00
36242;BME280;22283;42.748;12.732;2022-11-20T01:55:35;97192.00;;;8.05;100.00
36242;BME280;22283;42.748;12.732;2022-11-20T02:00:36;97193.22;;;8.01;100.00
36242;BME280;22283;42.748;12.732;2022-11-20T02:06:04;97191.50;;;8.00;100.00
36242;BME280;22283;42.748;12.732;2022-11-20T02:11:06;97194.63;;;7.94;100.00
36242;BME280;22283;42.748;12.732;2022-11-20T02:16:13;97193.06;;;7.91;100.00
36242;BME280;22283;42.748;12.732;2022-11-20T02:26:34;97190.69;;;7.88;100.00
36242;BME280;22283;42.748;12.732;2022-11-20T02:31:40;97191.25;;;7.92;100.00
36242;BME280;22283;42.748;12.732;2022-11-20T02:36:42;97196.78;;;7.88;100.00
36242;BME280;22283;42.748;12.732;2022-11-20T02:41:42;97200.63;;;7.84;100.00
36242;BME280;22283;42.748;12.732;2022-11-20T02:46:43;97198.31;;;7.80;100.00
36242;BME280;22283;42.748;12.732;2022-11-20T02:51:44;97202.88;;;7.78;100.00
36242;BME280;22283;42.748;12.732;2022-11-20T02:56:44;97203.72;;;7.78;100.00
36242;BME280;22283;42.748;12.732;2022-11-20T03:01:45;97197.75;;;7.76;100.00
36242;BME280;22283;42.748;12.732;2022-11-20T03:06:45;97208.25;;;7.76;100.00
36242;BME280;22283;42.748;12.732;2022-11-20T03:11:46;97200.25;;;7.78;100.00
36242;BME280;22283;42.748;12.732;2022-11-20T03:16:47;97210.38;;;7.71;100.00
36242;BME280;22283;42.748;12.732;2022-11-20T03:21:47;97203.44;;;7.59;100.00
36242;BME280;22283;42.748;12.732;2022-11-20T03:26:48;97218.88;;;7.63;100.00
36242;BME280;22283;42.748;12.732;2022-11-20T03:31:49;97226.28;;;7.58;100.00
36242;BME280;22283;42.748;12.732;2022-11-20T03:36:49;97213.25;;;7.57;100.00
36242;BME280;22283;42.748;12.732;2022-11-20T03:41:50;97212.16;;;7.59;100.00
36242;BME280;22283;42.748;12.732;2022-11-20T03:46:51;97213.25;;;7.57;100.00
36242;BME280;22283;42.748;12.732;2022-11-20T03:51:51;97212.41;;;7.56;100.00
36242;BME280;22283;42.748;12.732;2022-11-20T03:56:52;97219.22;;;7.59;100.00
36242;BME280;22283;42.748;12.732;2022-11-20T04:01:52;97234.53;;;7.54;100.00
36242;BME280;22283;42.748;12.732;2022-11-20T04:06:53;97224.97;;;7.53;100.00
36242;BME280;22283;42.748;12.732;2022-11-20T04:11:54;97231.91;;;7.54;100.00
36242;BME280;22283;42.748;12.732;2022-11-20T04:16:54;97226.16;;;7.49;100.00
36242;BME280;22283;42.748;12.732;2022-11-20T04:21:55;97222.34;;;7.53;100.00
36242;BME280;22283;42.748;12.732;2022-11-20T04:26:56;97228.78;;;7.49;100.00
36242;BME280;22283;42.748;12.732;2022-11-20T04:31:56;97228.22;;;7.56;100.00
36242;BME280;22283;42.748;12.732;2022-11-20T04:36:57;97222.25;;;7.66;100.00
36242;BME280;22283;42.748;12.732;2022-11-20T04:41:57;97225.84;;;7.64;100.00
36242;BME280;22283;42.748;12.732;2022-11-20T04:47:17;97234.56;;;7.65;100.00
36242;BME280;22283;42.748;12.732;2022-11-20T04:52:18;97230.63;;;7.71;100.00
36242;BME280;22283;42.748;12.732;2022-11-20T04:57:19;97225.72;;;7.66;100.00
36242;BME280;22283;42.748;12.732;2022-11-20T05:02:20;97240.53;;;7.67;100.00
36242;BME280;22283;42.748;12.732;2022-11-20T05:07:20;97237.69;;;7.70;100.00
36242;BME280;22283;42.748;12.732;2022-11-20T05:12:21;97234.09;;;7.71;100.00
36242;BME280;22283;42.748;12.732;2022-11-20T05:17:22;97231.22;;;7.74;100.00
36242;BME280;22283;42.748;12.732;2022-11-20T05:22:22;97243.16;;;7.67;100.00
36242;BME280;22283;42.748;12.732;2022-11-20T05:27:23;97247.50;;;7.68;100.00
36242;BME280;22283;42.748;12.732;2022-11-20T05:32:23;97238.47;;;7.59;100.00
36242;BME280;22283;42.748;12.732;2022-11-20T05:37:25;97247.72;;;7.65;100.00
36242;BME280;22283;42.748;12.732;2022-11-20T05:42:26;97257.75;;;7.60;100.00
36242;BME280;22283;42.748;12.732;2022-11-20T05:47:33;97267.06;;;7.53;100.00
36242;BME280;22283;42.748;12.732;2022-11-20T05:52:35;97280.72;;;7.58;100.00
36242;BME280;22283;42.748;12.732;2022-11-20T05:57:35;97293.19;;;7.67;100.00
36242;BME280;22283;42.748;12.732;2022-11-20T06:02:36;97301.78;;;7.58;100.00
36242;BME280;22283;42.748;12.732;2022-11-20T06:07:37;97301.16;;;7.54;100.00
36242;BME280;22283;42.748;12.732;2022-11-20T06:12:37;97297.84;;;7.52;100.00
36242;BME280;22283;42.748;12.732;2022-11-20T06:17:38;97313.97;;;7.59;100.00
36242;BME280;22283;42.748;12.732;2022-11-20T06:22:38;97311.34;;;7.59;100.00
36242;BME280;22283;42.748;12.732;2022-11-20T06:27:39;97312.59;;;7.66;100.00
36242;BME280;22283;42.748;12.732;2022-11-20T06:32:40;97320.34;;;7.68;100.00
36242;BME280;22283;42.748;12.732;2022-11-20T06:37:40;97320.13;;;7.71;100.00
36242;BME280;22283;42.748;12.732;2022-11-20T06:42:41;97328.88;;;7.71;100.00
36242;BME280;22283;42.748;12.732;2022-11-20T06:47:42;97323.88;;;7.79;100.00
36242;BME280;22283;42.748;12.732;2022-11-20T06:52:42;97323.44;;;7.85;100.00
36242;BME280;22283;42.748;12.732;2022-11-20T06:57:43;97311.22;;;7.96;100.00
36242;BME280;22283;42.748;12.732;2022-11-20T07:02:44;97321.34;;;8.13;100.00
36242;BME280;22283;42.748;12.732;2022-11-20T07:07:44;97316.94;;;8.25;100.00
36242;BME280;22283;42.748;12.732;2022-11-20T07:12:49;97324.31;;;8.44;100.00
36242;BME280;22283;42.748;12.732;2022-11-20T07:18:09;97338.56;;;8.52;100.00
36242;BME280;22283;42.748;12.732;2022-11-20T07:23:10;97336.53;;;8.56;100.00
36242;BME280;22283;42.748;12.732;2022-11-20T07:28:10;97365.75;;;8.53;100.00
36242;BME280;22283;42.748;12.732;2022-11-20T07:33:11;97373.66;;;8.53;100.00
36242;BME280;22283;42.748;12.732;2022-11-20T07:38:12;97381.00;;;8.60;100.00
36242;BME280;22283;42.748;12.732;2022-11-20T07:43:13;97390.72;;;8.71;100.00
36242;BME280;22283;42.748;12.732;2022-11-20T07:48:13;97398.53;;;8.84;100.00
36242;BME280;22283;42.748;12.732;2022-11-20T07:53:14;97415.44;;;8.93;100.00
36242;BME280;22283;42.748;12.732;2022-11-20T07:58:21;97412.78;;;8.93;100.00
36242;BME280;22283;42.748;12.732;2022-11-20T08:03:21;97405.94;;;8.90;100.00
36242;BME280;22283;42.748;12.732;2022-11-20T08:08:22;97416.38;;;9.14;100.00
36242;BME280;22283;42.748;12.732;2022-11-20T08:13:26;97417.94;;;9.39;100.00
36242;BME280;22283;42.748;12.732;2022-11-20T08:18:45;97426.56;;;9.41;100.00
36242;BME280;22283;42.748;12.732;2022-11-20T08:23:46;97430.75;;;9.55;100.00
36242;BME280;22283;42.748;12.732;2022-11-20T08:28:46;97435.91;;;9.56;100.00
36242;BME280;22283;42.748;12.732;2022-11-20T08:33:47;97437.31;;;9.60;100.00
36242;BME280;22283;42.748;12.732;2022-11-20T08:38:49;97456.63;;;9.72;100.00
36242;BME280;22283;42.748;12.732;2022-11-20T08:43:50;97457.72;;;9.70;100.00
36242;BME280;22283;42.748;12.732;2022-11-20T08:48:51;97466.22;;;9.84;100.00
36242;BME280;22283;42.748;12.732;2022-11-20T08:53:52;97456.91;;;10.01;100.00
36242;BME280;22283;42.748;12.732;2022-11-20T08:58:53;97459.22;;;10.38;100.00
36242;BME280;22283;42.748;12.732;2022-11-20T09:03:56;97468.09;;;10.69;100.00
36242;BME280;22283;42.748;12.732;2022-11-20T09:08:57;97472.84;;;10.54;100.00
36242;BME280;22283;42.748;12.732;2022-11-20T09:13:58;97477.09;;;10.14;100.00
36242;BME280;22283;42.748;12.732;2022-11-20T09:18:58;97466.22;;;9.84;100.00
36242;BME280;22283;42.748;12.732;2022-11-20T09:23:59;97455.00;;;10.03;100.00
36242;BME280;22283;42.748;12.732;2022-11-20T09:29:00;97465.38;;;10.27;100.00
36242;BME280;22283;42.748;12.732;2022-11-20T09:34:01;97464.81;;;10.45;100.00
36242;BME280;22283;42.748;12.732;2022-11-20T09:39:02;97462.31;;;10.43;100.00
36242;BME280;22283;42.748;12.732;2022-11-20T09:44:26;97469.41;;;10.64;100.00
36242;BME280;22283;42.748;12.732;2022-11-20T09:54:57;97459.91;;;10.61;100.00
36242;BME280;22283;42.748;12.732;2022-11-20T10:00:06;97465.22;;;11.03;100.00
36242;BME280;22283;42.748;12.732;2022-11-20T10:10:33;97452.31;;;11.50;90.83
36242;BME280;22283;42.748;12.732;2022-11-20T10:15:56;97442.13;;;11.86;88.79
36242;BME280;22283;42.748;12.732;2022-11-20T10:31:08;97436.03;;;12.43;86.87
36242;BME280;22283;42.748;12.732;2022-11-20T10:41:25;97432.91;;;11.90;90.37
36242;BME280;22283;42.748;12.732;2022-11-20T10:46:34;97427.13;;;11.65;91.99
36242;BME280;22283;42.748;12.732;2022-11-20T10:56:50;97404.56;;;11.30;94.02
36242;BME280;22283;42.748;12.732;2022-11-20T11:01:52;97407.38;;;11.39;97.65
36242;BME280;22283;42.748;12.732;2022-11-20T11:06:55;97406.91;;;11.64;95.91
36242;BME280;22283;42.748;12.732;2022-11-20T11:11:59;97421.41;;;11.60;95.18
36242;BME280;22283;42.748;12.732;2022-11-20T11:16:59;97423.91;;;11.62;96.83
36242;BME280;22283;42.748;12.732;2022-11-20T11:22:01;97408.69;;;11.64;97.70
36242;BME280;22283;42.748;12.732;2022-11-20T11:27:14;97406.56;;;11.98;93.93
36242;BME280;22283;42.748;12.732;2022-11-20T11:32:19;97400.53;;;12.15;91.99
36242;BME280;22283;42.748;12.732;2022-11-20T11:37:23;97398.91;;;12.04;92.03
36242;BME280;22283;42.748;12.732;2022-11-20T11:42:25;97403.22;;;11.96;92.77
36242;BME280;22283;42.748;12.732;2022-11-20T11:47:32;97414.50;;;11.98;91.69
36242;BME280;22283;42.748;12.732;2022-11-20T11:57:59;97419.97;;;12.16;94.75
36242;BME280;22283;42.748;12.732;2022-11-20T12:03:24;97429.31;;;12.00;90.73
36242;BME280;22283;42.748;12.732;2022-11-20T12:18:51;97421.47;;;12.57;89.95
36242;BME280;22283;42.748;12.732;2022-11-20T12:34:28;97413.63;;;12.65;86.44
36242;BME280;22283;42.748;12.732;2022-11-20T12:39:42;97406.94;;;12.61;83.27
36242;BME280;22283;42.748;12.732;2022-11-20T13:00:24;97409.34;;;12.06;84.83
36242;BME280;22283;42.748;12.732;2022-11-20T13:16:10;97403.75;;;12.19;81.38
36242;BME280;22283;42.748;12.732;2022-11-20T13:21:34;97405.03;;;12.05;81.00
36242;BME280;22283;42.748;12.732;2022-11-20T13:26:35;97404.47;;;12.01;82.66
36242;BME280;22283;42.748;12.732;2022-11-20T13:31:40;97397.91;;;11.96;80.66
36242;BME280;22283;42.748;12.732;2022-11-20T13:37:23;97386.00;;;11.80;81.78
36242;BME280;22283;42.748;12.732;2022-11-20T13:42:27;97395.59;;;11.62;79.40
36242;BME280;22283;42.748;12.732;2022-11-20T13:47:29;97392.31;;;11.39;74.88
36242;BME280;22283;42.748;12.732;2022-11-20T13:53:00;97381.72;;;11.29;75.53
36242;BME280;22283;42.748;12.732;2022-11-20T14:03:41;97372.09;;;11.28;74.61
36242;BME280;22283;42.748;12.732;2022-11-20T14:08:48;97373.22;;;11.36;74.16
36242;BME280;22283;42.748;12.732;2022-11-20T14:24:24;97371.91;;;11.20;76.03
36242;BME280;22283;42.748;12.732;2022-11-20T14:29:29;97362.16;;;11.11;76.48
36242;BME280;22283;42.748;12.732;2022-11-20T14:34:38;97366.88;;;11.07;77.99
36242;BME280;22283;42.748;12.732;2022-11-20T14:39:49;97364.09;;;11.09;77.52
36242;BME280;22283;42.748;12.732;2022-11-20T14:44:51;97357.09;;;10.98;73.92
36242;BME280;22283;42.748;12.732;2022-11-20T14:49:54;97364.28;;;10.87;76.53
36242;BME280;22283;42.748;12.732;2022-11-20T14:54:57;97373.19;;;10.86;75.35
36242;BME280;22283;42.748;12.732;2022-11-20T15:05:15;97377.50;;;10.87;75.95
36242;BME280;22283;42.748;12.732;2022-11-20T15:10:27;97378.03;;;10.80;75.87
36242;BME280;22283;42.748;12.732;2022-11-20T15:15:35;97394.00;;;10.69;74.78
36242;BME280;22283;42.748;12.732;2022-11-20T15:20:36;97396.91;;;10.66;76.09
36242;BME280;22283;42.748;12.732;2022-11-20T15:25:39;97399.19;;;10.50;78.93
36242;BME280;22283;42.748;12.732;2022-11-20T15:30:40;97403.06;;;10.46;80.26
36242;BME280;22283;42.748;12.732;2022-11-20T15:35:41;97407.41;;;10.36;82.55
36242;BME280;22283;42.748;12.732;2022-11-20T15:40:42;97406.59;;;10.24;84.39
36242;BME280;22283;42.748;12.732;2022-11-20T15:50:51;97416.56;;;9.99;88.95
36242;BME280;22283;42.748;12.732;2022-11-20T15:55:52;97423.25;;;9.82;92.01
36242;BME280;22283;42.748;12.732;2022-11-20T16:00:53;97420.66;;;9.60;92.98
36242;BME280;22283;42.748;12.732;2022-11-20T16:05:54;97414.53;;;9.48;90.26
36242;BME280;22283;42.748;12.732;2022-11-20T16:10:54;97412.06;;;9.35;87.78
36242;BME280;22283;42.748;12.732;2022-11-20T16:15:57;97428.50;;;9.17;87.79
36242;BME280;22283;42.748;12.732;2022-11-20T16:20:59;97430.66;;;8.89;89.64
36242;BME280;22283;42.748;12.732;2022-11-20T16:26:09;97423.31;;;8.70;90.55
36242;BME280;22283;42.748;12.732;2022-11-20T16:31:11;97436.91;;;8.42;93.66
36242;BME280;22283;42.748;12.732;2022-11-20T16:36:13;97438.94;;;8.14;96.61
36242;BME280;22283;42.748;12.732;2022-11-20T16:41:14;97454.22;;;7.98;97.27
36242;BME280;22283;42.748;12.732;2022-11-20T16:46:19;97454.16;;;7.86;96.97
36242;BME280;22283;42.748;12.732;2022-11-20T16:51:21;97458.50;;;7.75;98.49
36242;BME280;22283;42.748;12.732;2022-11-20T16:56:24;97450.44;;;7.65;100.00
36242;BME280;22283;42.748;12.732;2022-11-20T17:01:26;97452.16;;;7.53;100.00
36242;BME280;22283;42.748;12.732;2022-11-20T17:06:30;97468.41;;;7.34;100.00
36242;BME280;22283;42.748;12.732;2022-11-20T17:11:31;97476.13;;;7.25;100.00
36242;BME280;22283;42.748;12.732;2022-11-20T17:16:34;97485.38;;;7.30;100.00
36242;BME280;22283;42.748;12.732;2022-11-20T17:21:35;97480.63;;;7.35;100.00
36242;BME280;22283;42.748;12.732;2022-11-20T17:26:37;97489.69;;;7.31;100.00
36242;BME280;22283;42.748;12.732;2022-11-20T17:31:39;97500.84;;;7.22;100.00
36242;BME280;22283;42.748;12.732;2022-11-20T17:36:40;97487.50;;;7.00;100.00
36242;BME280;22283;42.748;12.732;2022-11-20T17:41:44;97480.13;;;6.79;100.00
36242;BME280;22283;42.748;12.732;2022-11-20T17:47:05;97494.22;;;6.65;100.00
36242;BME280;22283;42.748;12.732;2022-11-20T17:52:06;97493.69;;;6.60;100.00
36242;BME280;22283;42.748;12.732;2022-11-20T17:57:08;97505.97;;;6.60;100.00
36242;BME280;22283;42.748;12.732;2022-11-20T18:02:27;97511.03;;;6.63;100.00
36242;BME280;22283;42.748;12.732;2022-11-20T18:07:28;97508.34;;;6.77;100.00
36242;BME280;22283;42.748;12.732;2022-11-20T18:12:29;97506.53;;;6.90;100.00
36242;BME280;22283;42.748;12.732;2022-11-20T18:17:29;97502.63;;;6.96;100.00
36242;BME280;22283;42.748;12.732;2022-11-20T18:22:30;97506.03;;;6.98;100.00
36242;BME280;22283;42.748;12.732;2022-11-20T18:27:31;97512.56;;;7.05;100.00
36242;BME280;22283;42.748;12.732;2022-11-20T18:32:33;97518.84;;;7.03;100.00
36242;BME280;22283;42.748;12.732;2022-11-20T18:37:35;97525.69;;;7.05;100.00
36242;BME280;22283;42.748;12.732;2022-11-20T18:42:36;97526.41;;;7.20;100.00
36242;BME280;22283;42.748;12.732;2022-11-20T18:47:55;97533.16;;;7.24;100.00
36242;BME280;22283;42.748;12.732;2022-11-20T18:52:55;97540.13;;;7.25;100.00
36242;BME280;22283;42.748;12.732;2022-11-20T18:57:56;97540.94;;;7.26;100.00
36242;BME280;22283;42.748;12.732;2022-11-20T19:02:56;97549.78;;;7.37;100.00
36242;BME280;22283;42.748;12.732;2022-11-20T19:07:57;97557.47;;;7.41;100.00
36242;BME280;22283;42.748;12.732;2022-11-20T19:12:58;97570.63;;;7.41;100.00
36242;BME280;22283;42.748;12.732;2022-11-20T19:17:59;97575.47;;;7.47;100.00
36242;BME280;22283;42.748;12.732;2022-11-20T19:23:00;97582.19;;;7.51;100.00
36242;BME280;22283;42.748;12.732;2022-11-20T19:28:01;97577.13;;;7.48;100.00
36242;BME280;22283;42.748;12.732;2022-11-20T19:33:03;97584.97;;;7.36;100.00
36242;BME280;22283;42.748;12.732;2022-11-20T19:38:03;97583.13;;;7.24;100.00
36242;BME280;22283;42.748;12.732;2022-11-20T19:43:07;97595.88;;;7.30;100.00
36242;BME280;22283;42.748;12.732;2022-11-20T19:48:07;97608.63;;;7.36;100.00
36242;BME280;22283;42.748;12.732;2022-11-20T19:53:08;97613.16;;;7.34;100.00
36242;BME280;22283;42.748;12.732;2022-11-20T19:58:10;97610.19;;;7.39;100.00
36242;BME280;22283;42.748;12.732;2022-11-20T20:03:12;97608.97;;;7.45;100.00
36242;BME280;22283;42.748;12.732;2022-11-20T20:08:13;97606.50;;;7.54;100.00
36242;BME280;22283;42.748;12.732;2022-11-20T20:13:14;97613.34;;;7.44;100.00
36242;BME280;22283;42.748;12.732;2022-11-20T20:18:14;97615.25;;;7.29;100.00
36242;BME280;22283;42.748;12.732;2022-11-20T20:23:15;97600.72;;;7.11;100.00
36242;BME280;22283;42.748;12.732;2022-11-20T20:28:15;97616.06;;;7.04;100.00
36242;BME280;22283;42.748;12.732;2022-11-20T20:33:16;97623.41;;;6.86;100.00
36242;BME280;22283;42.748;12.732;2022-11-20T20:38:17;97631.34;;;6.72;100.00
36242;BME280;22283;42.748;12.732;2022-11-20T20:43:17;97631.66;;;6.68;100.00
36242;BME280;22283;42.748;12.732;2022-11-20T20:48:20;97640.38;;;6.68;100.00
36242;BME280;22283;42.748;12.732;2022-11-20T20:53:23;97655.31;;;6.68;100.00
36242;BME280;22283;42.748;12.732;2022-11-20T20:58:24;97656.13;;;6.68;100.00
36242;BME280;22283;42.748;12.732;2022-11-20T21:03:25;97670.03;;;6.70;100.00
36242;BME280;22283;42.748;12.732;2022-11-20T21:08:26;97679.50;;;6.73;100.00
36242;BME280;22283;42.748;12.732;2022-11-20T21:13:27;97680.59;;;6.83;100.00
36242;BME280;22283;42.748;12.732;2022-11-20T21:18:29;97686.41;;;6.88;100.00
36242;BME280;22283;42.748;12.732;2022-11-20T21:23:33;97686.84;;;6.95;100.00
36242;BME280;22283;42.748;12.732;2022-11-20T21:28:35;97688.00;;;6.90;100.00
36242;BME280;22283;42.748;12.732;2022-11-20T21:33:40;97668.56;;;6.93;100.00
36242;BME280;22283;42.748;12.732;2022-11-20T21:38:42;97663.19;;;6.95;100.00
36242;BME280;22283;42.748;12.732;2022-11-20T21:43:43;97652.22;;;6.88;100.00
36242;BME280;22283;42.748;12.732;2022-11-20T21:48:45;97651.53;;;6.72;100.00
36242;BME280;22283;42.748;12.732;2022-11-20T21:53:47;97646.84;;;6.50;100.00
36242;BME280;22283;42.748;12.732;2022-11-20T21:58:48;97644.38;;;6.20;100.00
36242;BME280;22283;42.748;12.732;2022-11-20T22:03:54;97645.22;;;5.91;100.00
36242;BME280;22283;42.748;12.732;2022-11-20T22:08:56;97634.53;;;5.66;100.00
36242;BME280;22283;42.748;12.732;2022-11-20T22:13:57;97629.28;;;5.37;100.00
36242;BME280;22283;42.748;12.732;2022-11-20T22:19:20;97624.94;;;5.22;100.00
36242;BME280;22283;42.748;12.732;2022-11-20T22:24:22;97623.03;;;5.10;100.00
36242;BME280;22283;42.748;12.732;2022-11-20T22:29:23;97621.16;;;4.98;100.00
36242;BME280;22283;42.748;12.732;2022-11-20T22:34:24;97605.69;;;4.93;100.00
36242;BME280;22283;42.748;12.732;2022-11-20T22:39:24;97610.66;;;4.98;100.00
36242;BME280;22283;42.748;12.732;2022-11-20T22:44:25;97580.31;;;4.93;100.00
36242;BME280;22283;42.748;12.732;2022-11-20T22:49:26;97582.22;;;4.91;100.00
36242;BME280;22283;42.748;12.732;2022-11-20T22:54:26;97586.84;;;4.86;100.00
36242;BME280;22283;42.748;12.732;2022-11-20T22:59:27;97593.84;;;4.72;100.00
36242;BME280;22283;42.748;12.732;2022-11-20T23:04:28;97592.69;;;4.61;100.00
36242;BME280;22283;42.748;12.732;2022-11-20T23:09:28;97598.22;;;4.41;100.00
36242;BME280;22283;42.748;12.732;2022-11-20T23:14:29;97593.69;;;4.29;100.00
36242;BME280;22283;42.748;12.732;2022-11-20T23:19:29;97571.97;;;4.11;100.00
36242;BME280;22283;42.748;12.732;2022-11-20T23:24:30;97593.25;;;4.36;100.00
36242;BME280;22283;42.748;12.732;2022-11-20T23:29:31;97583.47;;;4.24;100.00
36242;BME280;22283;42.748;12.732;2022-11-20T23:34:31;97586.53;;;4.01;100.00
36242;BME280;22283;42.748;12.732;2022-11-20T23:39:32;97585.84;;;3.81;100.00
36242;BME280;22283;42.748;12.732;2022-11-20T23:44:32;97580.75;;;3.62;100.00
36242;BME280;22283;42.748;12.732;2022-11-20T23:49:34;97598.97;;;3.64;100.00
36242;BME280;22283;42.748;12.732;2022-11-20T23:54:34;97604.03;;;3.51;100.00
36242;BME280;22283;42.748;12.732;2022-11-20T23:59:35;97616.75;;;3.41;100.00
